createdAt,value
2022-11-25T00:00:07.686Z,4.40
2022-11-25T00:02:34.514Z,4.50
2022-11-25T00:05:01.170Z,4.60
2022-11-25T00:07:27.880Z,4.30
2022-11-25T00:09:54.570Z,4.20
2022-11-25T00:12:21.263Z,4.30
2022-11-25T00:14:47.944Z,4.10
2022-11-25T00:17:14.821Z,4.10
2022-11-25T00:19:41.492Z,3.80
2022-11-25T00:22:08.109Z,3.80
2022-11-25T00:24:35.122Z,4.00
2022-11-25T00:27:01.887Z,4.10
2022-11-25T00:29:28.536Z,3.80
2022-11-25T00:31:55.294Z,3.40
2022-11-25T00:34:21.946Z,3.40
2022-11-25T00:36:48.586Z,3.60
2022-11-25T00:39:15.223Z,4.00
2022-11-25T00:41:41.892Z,4.00
2022-11-25T00:44:08.514Z,4.10
2022-11-25T00:46:35.137Z,4.10
2022-11-25T00:49:01.783Z,3.90
2022-11-25T00:51:28.434Z,3.90
2022-11-25T00:53:58.933Z,3.60
2022-11-25T00:56:25.826Z,3.90
2022-11-25T00:58:52.478Z,3.90
2022-11-25T01:01:19.173Z,3.90
2022-11-25T01:03:45.811Z,3.60
2022-11-25T01:06:12.454Z,3.60
2022-11-25T01:08:39.084Z,3.70
2022-11-25T01:11:05.731Z,3.70
2022-11-25T01:13:32.368Z,3.60
2022-11-25T01:15:59.058Z,3.80
2022-11-25T01:18:25.698Z,3.60
2022-11-25T01:20:52.353Z,3.30
2022-11-25T01:23:18.950Z,3.20
2022-11-25T01:25:45.609Z,2.90
2022-11-25T01:28:12.239Z,3.20
2022-11-25T01:30:41.286Z,3.50
2022-11-25T01:33:08.070Z,3.60
2022-11-25T01:35:34.676Z,3.70
2022-11-25T01:38:01.342Z,3.50
2022-11-25T01:40:28.017Z,3.20
2022-11-25T01:42:54.689Z,3.40
2022-11-25T01:45:21.306Z,3.50
2022-11-25T01:47:47.919Z,3.60
2022-11-25T01:50:14.542Z,3.70
2022-11-25T01:52:41.159Z,3.60
2022-11-25T01:55:07.830Z,3.70
2022-11-25T01:57:34.421Z,3.70
2022-11-25T02:00:01.080Z,3.40
2022-11-25T02:02:27.782Z,3.00
2022-11-25T02:04:54.438Z,3.20
2022-11-25T02:07:21.095Z,3.30
2022-11-25T02:09:47.717Z,3.40
2022-11-25T02:12:14.350Z,3.20
2022-11-25T02:14:40.962Z,3.30
2022-11-25T02:17:07.629Z,3.50
2022-11-25T02:19:34.274Z,3.60
2022-11-25T02:22:00.871Z,3.70
2022-11-25T02:24:27.477Z,3.50
2022-11-25T02:26:54.079Z,3.40
2022-11-25T02:29:20.697Z,3.40
2022-11-25T02:31:47.393Z,3.40
2022-11-25T02:34:14.120Z,3.40
2022-11-25T02:36:40.732Z,3.20
2022-11-25T02:39:07.341Z,3.30
2022-11-25T02:41:34.147Z,3.40
2022-11-25T02:44:00.776Z,3.60
2022-11-25T02:46:27.470Z,3.60
2022-11-25T02:49:10.336Z,3.70
2022-11-25T02:51:37.326Z,3.70
2022-11-25T02:54:04.022Z,3.50
2022-11-25T02:56:30.652Z,3.60
2022-11-25T02:58:57.311Z,3.30
2022-11-25T03:01:24.059Z,3.30
2022-11-25T03:03:50.758Z,3.30
2022-11-25T03:06:17.344Z,3.00
2022-11-25T03:08:44.037Z,2.90
2022-11-25T03:11:10.762Z,3.10
2022-11-25T03:13:37.436Z,3.30
2022-11-25T03:16:04.087Z,3.00
2022-11-25T03:18:30.782Z,2.80
2022-11-25T03:20:57.397Z,3.10
2022-11-25T03:23:24.041Z,2.90
2022-11-25T03:25:50.672Z,2.80
2022-11-25T03:28:17.270Z,2.90
2022-11-25T03:30:43.943Z,3.00
2022-11-25T03:33:10.585Z,2.90
2022-11-25T03:35:37.204Z,3.20
2022-11-25T03:38:03.841Z,3.30
2022-11-25T03:40:30.514Z,3.10
2022-11-25T03:42:57.123Z,3.40
2022-11-25T03:45:23.741Z,3.20
2022-11-25T03:47:50.426Z,3.40
2022-11-25T03:50:17.101Z,3.00
2022-11-25T03:52:43.730Z,3.00
2022-11-25T03:55:10.391Z,3.00
2022-11-25T03:57:37.005Z,3.10
2022-11-25T04:00:03.711Z,3.10
2022-11-25T04:02:30.472Z,3.20
2022-11-25T04:04:57.155Z,3.30
2022-11-25T04:07:23.892Z,3.20
2022-11-25T04:09:50.592Z,2.90
2022-11-25T04:12:17.184Z,2.80
2022-11-25T04:14:43.830Z,3.00
2022-11-25T04:17:10.531Z,2.90
2022-11-25T04:19:37.220Z,2.90
2022-11-25T04:22:03.875Z,3.10
2022-11-25T04:24:30.579Z,3.20
2022-11-25T04:26:57.233Z,3.10
2022-11-25T04:29:23.875Z,3.00
2022-11-25T04:31:50.528Z,3.00
2022-11-25T04:34:17.130Z,3.10
2022-11-25T04:36:43.758Z,3.20
2022-11-25T04:39:10.408Z,3.20
2022-11-25T04:41:37.074Z,3.20
2022-11-25T04:44:03.674Z,3.10
2022-11-25T04:46:30.338Z,2.90
2022-11-25T04:48:57.026Z,2.90
2022-11-25T04:51:23.666Z,2.80
2022-11-25T04:53:50.322Z,3.00
2022-11-25T04:56:16.953Z,2.80
2022-11-25T04:58:43.565Z,2.90
2022-11-25T05:01:10.269Z,2.90
2022-11-25T05:03:36.990Z,3.10
2022-11-25T05:06:03.655Z,3.10
2022-11-25T05:08:30.302Z,3.20
2022-11-25T05:10:56.894Z,3.20
2022-11-25T05:13:23.543Z,3.00
2022-11-25T05:15:50.204Z,3.00
2022-11-25T05:18:16.883Z,2.90
2022-11-25T05:20:43.538Z,2.50
2022-11-25T05:23:10.173Z,2.70
2022-11-25T05:25:36.824Z,2.90
2022-11-25T05:28:03.472Z,2.90
2022-11-25T05:30:30.230Z,3.00
2022-11-25T05:32:56.889Z,2.70
2022-11-25T05:35:23.500Z,2.90
2022-11-25T05:37:50.109Z,3.10
2022-11-25T05:40:16.783Z,3.20
2022-11-25T05:42:43.414Z,3.20
2022-11-25T05:45:10.064Z,2.50
2022-11-25T05:47:36.742Z,2.50
2022-11-25T05:50:03.429Z,2.40
2022-11-25T05:52:30.041Z,2.40
2022-11-25T05:54:57.563Z,2.60
2022-11-25T05:57:24.302Z,2.70
2022-11-25T05:59:50.950Z,2.80
2022-11-25T06:02:17.606Z,2.90
2022-11-25T06:04:44.257Z,3.00
2022-11-25T06:07:10.954Z,2.90
2022-11-25T06:09:37.601Z,2.50
2022-11-25T06:12:04.196Z,2.40
2022-11-25T06:14:30.853Z,2.60
2022-11-25T06:16:57.472Z,2.60
2022-11-25T06:19:24.130Z,2.70
2022-11-25T06:21:50.800Z,2.80
2022-11-25T06:24:17.410Z,2.70
2022-11-25T06:26:44.066Z,2.60
2022-11-25T06:29:10.706Z,2.70
2022-11-25T06:31:37.374Z,3.00
2022-11-25T06:34:04.080Z,3.10
2022-11-25T06:36:30.825Z,2.70
2022-11-25T06:38:57.484Z,2.50
2022-11-25T06:41:24.154Z,2.70
2022-11-25T06:43:50.740Z,2.20
2022-11-25T06:46:21.333Z,2.30
2022-11-25T06:48:51.306Z,2.50
2022-11-25T06:51:17.948Z,2.30
2022-11-25T06:53:44.582Z,2.50
2022-11-25T06:56:11.221Z,2.80
2022-11-25T06:58:37.877Z,2.30
2022-11-25T07:01:04.486Z,2.70
2022-11-25T07:03:31.101Z,2.90
2022-11-25T07:05:57.734Z,3.10
2022-11-25T07:08:25.097Z,3.30
2022-11-25T07:10:53.882Z,3.40
2022-11-25T07:13:20.539Z,3.60
2022-11-25T07:15:47.280Z,3.70
2022-11-25T07:18:14.006Z,3.80
2022-11-25T07:20:40.641Z,3.80
2022-11-25T07:23:07.300Z,3.70
2022-11-25T07:25:33.970Z,4.00
2022-11-25T07:28:00.598Z,4.10
2022-11-25T07:31:21.833Z,4.20
2022-11-25T07:33:13.884Z,4.30
2022-11-25T07:35:40.550Z,4.40
2022-11-25T07:38:07.187Z,4.50
2022-11-25T07:40:33.841Z,4.60
2022-11-25T07:43:00.514Z,4.80
2022-11-25T07:45:27.219Z,4.80
2022-11-25T07:47:53.944Z,4.50
2022-11-25T07:50:20.541Z,4.50
2022-11-25T07:52:47.252Z,4.90
2022-11-25T07:55:13.967Z,5.20
2022-11-25T07:57:40.591Z,5.30
2022-11-25T08:00:07.245Z,5.60
2022-11-25T08:02:33.957Z,5.90
2022-11-25T08:05:00.618Z,5.80
2022-11-25T08:07:30.700Z,6.00
2022-11-25T08:10:00.116Z,6.30
2022-11-25T08:12:26.769Z,6.40
2022-11-25T08:14:53.426Z,6.70
2022-11-25T08:17:20.059Z,6.80
2022-11-25T08:19:46.797Z,6.80
2022-11-25T08:22:13.462Z,6.90
2022-11-25T08:24:40.074Z,7.00
2022-11-25T08:27:06.731Z,7.20
2022-11-25T08:29:33.598Z,7.50
2022-11-25T08:32:00.382Z,7.70
2022-11-25T08:34:27.000Z,7.40
2022-11-25T08:36:53.627Z,7.60
2022-11-25T08:42:06.942Z,7.90
2022-11-25T08:44:33.618Z,7.90
2022-11-25T08:47:00.314Z,8.00
2022-11-25T08:49:27.062Z,8.10
2022-11-25T08:51:53.720Z,8.10
2022-11-25T08:54:20.304Z,8.10
2022-11-25T08:56:46.955Z,8.00
2022-11-25T08:59:13.595Z,7.70
2022-11-25T09:01:40.277Z,7.90
2022-11-25T09:04:07.033Z,7.90
2022-11-25T09:06:33.616Z,7.70
2022-11-25T09:09:00.285Z,7.90
2022-11-25T09:11:27.044Z,7.90
2022-11-25T09:13:54.021Z,7.70
2022-11-25T09:16:20.928Z,7.80
2022-11-25T09:18:52.404Z,7.90
2022-11-25T09:21:22.100Z,8.10
2022-11-25T09:23:48.770Z,8.40
2022-11-25T09:26:15.643Z,8.40
2022-11-25T09:28:42.260Z,8.60
2022-11-25T09:31:09.014Z,8.70
2022-11-25T09:33:35.698Z,8.80
2022-11-25T09:36:02.350Z,8.80
2022-11-25T09:38:29.000Z,9.10
2022-11-25T09:40:55.669Z,9.30
2022-11-25T09:43:22.310Z,9.40
2022-11-25T09:45:48.994Z,9.40
2022-11-25T09:48:15.722Z,9.20
2022-11-25T09:50:42.368Z,9.10
2022-11-25T09:53:09.047Z,9.30
2022-11-25T09:55:35.679Z,9.50
2022-11-25T09:58:02.279Z,9.80
2022-11-25T10:00:28.963Z,9.80
2022-11-25T10:02:55.680Z,9.70
2022-11-25T10:05:22.400Z,9.60
2022-11-25T10:07:49.042Z,9.70
2022-11-25T10:10:15.664Z,9.90
2022-11-25T10:12:42.305Z,10.10
2022-11-25T10:15:08.923Z,10.10
2022-11-25T10:17:35.714Z,10.40
2022-11-25T10:20:02.437Z,10.80
2022-11-25T10:22:29.070Z,11.00
2022-11-25T10:24:56.993Z,11.20
2022-11-25T10:27:23.612Z,11.10
2022-11-25T10:29:50.246Z,11.20
2022-11-25T10:32:16.899Z,11.20
2022-11-25T10:34:43.509Z,11.30
2022-11-25T10:37:11.178Z,11.70
2022-11-25T10:39:37.810Z,11.90
2022-11-25T10:42:04.446Z,12.20
2022-11-25T10:44:31.079Z,11.90
2022-11-25T10:47:13.504Z,11.60
2022-11-25T10:49:41.163Z,11.70
2022-11-25T10:52:07.755Z,11.90
2022-11-25T10:54:34.426Z,11.90
2022-11-25T10:57:01.045Z,12.20
2022-11-25T10:59:27.676Z,12.50
2022-11-25T11:01:54.398Z,12.50
2022-11-25T11:04:21.103Z,12.60
2022-11-25T11:06:47.758Z,12.60
2022-11-25T11:09:14.438Z,12.60
2022-11-25T11:11:41.060Z,12.70
2022-11-25T11:14:07.723Z,12.80
2022-11-25T11:16:34.469Z,12.70
2022-11-25T11:19:01.138Z,12.90
2022-11-25T11:21:27.782Z,13.10
2022-11-25T11:23:54.441Z,13.10
2022-11-25T11:26:21.059Z,12.90
2022-11-25T11:28:47.717Z,12.80
2022-11-25T11:31:14.428Z,12.80
2022-11-25T11:33:41.106Z,12.50
2022-11-25T11:36:07.770Z,12.80
2022-11-25T11:38:34.435Z,13.10
2022-11-25T11:41:01.076Z,13.40
2022-11-25T11:43:27.734Z,13.50
2022-11-25T11:45:54.328Z,13.10
2022-11-25T11:48:20.947Z,12.90
2022-11-25T11:50:47.582Z,13.10
2022-11-25T11:53:14.222Z,13.20
2022-11-25T11:55:40.899Z,12.60
2022-11-25T11:58:07.498Z,12.20
2022-11-25T12:00:34.165Z,11.80
2022-11-25T12:03:00.936Z,11.70
2022-11-25T12:05:27.609Z,12.20
2022-11-25T12:07:54.344Z,12.70
2022-11-25T12:10:21.121Z,13.10
2022-11-25T12:12:47.799Z,12.70
2022-11-25T12:15:14.523Z,12.40
2022-11-25T12:17:41.295Z,11.90
2022-11-25T12:20:07.938Z,11.90
2022-11-25T12:22:34.659Z,12.00
2022-11-25T12:25:01.347Z,12.20
2022-11-25T12:27:28.000Z,12.10
2022-11-25T12:29:54.627Z,11.90
2022-11-25T12:32:21.317Z,12.30
2022-11-25T12:34:48.039Z,12.00
2022-11-25T12:37:15.303Z,12.10
2022-11-25T12:39:42.168Z,11.90
2022-11-25T12:42:08.894Z,11.90
2022-11-25T12:44:35.882Z,12.30
2022-11-25T12:47:02.775Z,12.50
2022-11-25T12:49:29.530Z,12.80
2022-11-25T12:51:56.214Z,13.20
2022-11-25T12:54:22.944Z,13.10
2022-11-25T12:56:49.593Z,13.10
2022-11-25T12:59:16.243Z,13.20
2022-11-25T13:01:43.064Z,13.00
2022-11-25T13:04:09.820Z,13.30
2022-11-25T13:06:36.440Z,12.70
2022-11-25T13:09:03.094Z,12.80
2022-11-25T13:11:30.033Z,12.70
2022-11-25T13:13:57.306Z,12.50
2022-11-25T13:16:24.626Z,12.50
2022-11-25T13:18:51.522Z,12.60
2022-11-25T13:21:18.170Z,13.00
2022-11-25T13:23:49.059Z,13.00
2022-11-25T13:26:16.266Z,13.00
2022-11-25T13:28:44.333Z,13.20
2022-11-25T13:31:11.023Z,13.30
2022-11-25T13:33:37.701Z,13.20
2022-11-25T13:36:04.357Z,13.40
2022-11-25T13:38:31.023Z,13.30
2022-11-25T13:40:57.671Z,13.20
2022-11-25T13:43:24.309Z,13.00
2022-11-25T13:45:50.992Z,13.10
2022-11-25T13:48:17.702Z,13.20
2022-11-25T13:51:09.331Z,13.10
2022-11-25T13:53:31.164Z,13.10
2022-11-25T13:55:57.847Z,12.90
2022-11-25T13:58:24.565Z,12.60
2022-11-25T14:00:51.229Z,12.10
2022-11-25T14:03:17.992Z,12.10
2022-11-25T14:05:44.744Z,12.30
2022-11-25T14:08:11.693Z,12.40
2022-11-25T14:10:38.346Z,12.30
2022-11-25T14:13:05.023Z,12.10
2022-11-25T14:15:31.764Z,11.90
2022-11-25T14:17:58.424Z,11.90
2022-11-25T14:20:25.068Z,11.70
2022-11-25T14:22:51.707Z,11.70
2022-11-25T14:25:18.296Z,11.80
2022-11-25T14:27:44.976Z,11.60
2022-11-25T14:30:11.683Z,11.60
2022-11-25T14:32:38.332Z,11.80
2022-11-25T14:35:05.019Z,11.80
2022-11-25T14:37:31.734Z,11.50
2022-11-25T14:39:58.363Z,11.30
2022-11-25T14:42:25.022Z,11.20
2022-11-25T14:44:51.666Z,11.10
2022-11-25T14:47:18.322Z,11.00
2022-11-25T14:49:55.357Z,10.60
2022-11-25T14:52:31.576Z,10.10
2022-11-25T14:54:58.184Z,9.70
2022-11-25T14:57:24.855Z,9.80
2022-11-25T14:59:51.571Z,10.10
2022-11-25T15:02:18.252Z,10.10
2022-11-25T15:04:44.890Z,10.20
2022-11-25T15:07:11.523Z,10.00
2022-11-25T15:09:38.495Z,10.10
2022-11-25T15:12:05.384Z,10.00
2022-11-25T15:14:32.037Z,9.50
2022-11-25T15:16:58.768Z,8.80
2022-11-25T15:19:29.237Z,8.50
2022-11-25T15:24:48.867Z,8.30
2022-11-25T15:27:18.385Z,8.50
2022-11-25T15:29:45.023Z,8.70
2022-11-25T15:32:11.677Z,8.90
2022-11-25T15:34:38.446Z,9.10
2022-11-25T15:37:05.065Z,9.10
2022-11-25T15:39:31.667Z,8.90
2022-11-25T15:41:58.334Z,8.80
2022-11-25T15:44:24.954Z,8.70
2022-11-25T15:46:51.599Z,8.70
2022-11-25T15:49:18.244Z,8.20
2022-11-25T15:51:44.852Z,7.90
2022-11-25T15:54:11.439Z,7.80
2022-11-25T15:56:38.102Z,7.60
2022-11-25T15:59:04.772Z,7.50
2022-11-25T16:01:31.496Z,7.50
2022-11-25T16:03:58.162Z,7.90
2022-11-25T16:06:24.778Z,7.60
2022-11-25T16:08:51.448Z,7.30
2022-11-25T16:11:18.064Z,7.70
2022-11-25T16:13:44.727Z,7.30
2022-11-25T16:16:11.364Z,7.40
2022-11-25T16:18:40.617Z,7.40
2022-11-25T16:21:07.790Z,7.40
2022-11-25T16:23:34.452Z,7.60
2022-11-25T16:26:01.115Z,7.70
2022-11-25T16:28:27.759Z,7.80
2022-11-25T16:30:57.873Z,8.00
2022-11-25T16:33:26.015Z,8.10
2022-11-25T16:35:52.688Z,8.10
2022-11-25T16:38:19.340Z,7.80
2022-11-25T16:40:45.973Z,7.40
2022-11-25T16:43:12.615Z,6.90
2022-11-25T16:45:39.254Z,6.60
2022-11-25T16:48:05.911Z,6.50
2022-11-25T16:50:32.527Z,6.70
2022-11-25T16:52:59.222Z,6.90
2022-11-25T16:55:25.918Z,7.00
2022-11-25T16:57:52.531Z,7.30
2022-11-25T17:00:19.166Z,7.60
2022-11-25T17:02:45.984Z,7.80
2022-11-25T17:05:12.707Z,8.00
2022-11-25T17:07:39.445Z,7.90
2022-11-25T17:10:06.079Z,8.00
2022-11-25T17:12:32.717Z,8.10
2022-11-25T17:14:59.569Z,7.80
2022-11-25T17:17:26.448Z,7.40
2022-11-25T17:19:53.133Z,7.80
2022-11-25T17:22:19.760Z,7.60
2022-11-25T17:24:46.387Z,7.80
2022-11-25T17:27:13.028Z,7.90
2022-11-25T17:29:40.166Z,8.00
2022-11-25T17:32:07.204Z,7.80
2022-11-25T17:34:38.145Z,7.80
2022-11-25T17:37:06.259Z,8.00
2022-11-25T17:39:32.936Z,7.90
2022-11-25T17:41:59.566Z,7.90
2022-11-25T17:44:26.196Z,7.50
2022-11-25T17:46:52.806Z,7.60
2022-11-25T17:49:19.434Z,7.30
2022-11-25T17:51:46.128Z,7.50
2022-11-25T17:54:12.797Z,7.60
2022-11-25T17:56:39.379Z,7.70
2022-11-25T17:59:06.030Z,7.90
2022-11-25T18:01:32.908Z,8.00
2022-11-25T18:03:59.637Z,8.00
2022-11-25T18:06:26.284Z,7.90
2022-11-25T18:08:52.895Z,7.80
2022-11-25T18:11:19.628Z,7.90
2022-11-25T18:13:46.331Z,7.80
2022-11-25T18:16:13.012Z,7.80
2022-11-25T18:18:39.790Z,7.90
2022-11-25T18:21:06.552Z,7.60
2022-11-25T18:23:33.368Z,7.80
2022-11-25T18:26:00.035Z,7.80
2022-11-25T18:28:26.641Z,7.90
2022-11-25T18:30:53.312Z,7.90
2022-11-25T18:33:19.981Z,7.80
2022-11-25T18:35:46.605Z,7.80
2022-11-25T18:38:13.255Z,7.80
2022-11-25T18:40:39.932Z,7.90
2022-11-25T18:43:06.575Z,7.80
2022-11-25T18:45:33.274Z,7.80
2022-11-25T18:47:59.914Z,7.70
2022-11-25T18:50:26.630Z,7.70
2022-11-25T18:52:53.307Z,7.60
2022-11-25T18:55:19.966Z,7.50
2022-11-25T18:57:46.694Z,7.70
2022-11-25T19:03:00.035Z,7.60
2022-11-25T19:05:26.708Z,7.70
2022-11-25T19:07:53.431Z,7.70
2022-11-25T19:10:20.194Z,7.70
2022-11-25T19:12:46.857Z,7.20
2022-11-25T19:15:13.496Z,7.30
2022-11-25T19:17:40.143Z,7.40
2022-11-25T19:20:06.806Z,7.50
2022-11-25T19:22:33.443Z,7.60
2022-11-25T19:25:00.101Z,7.60
2022-11-25T19:27:26.749Z,7.70
2022-11-25T19:29:53.429Z,7.60
2022-11-25T19:32:20.233Z,7.50
2022-11-25T19:34:46.910Z,7.50
2022-11-25T19:37:13.534Z,7.40
2022-11-25T19:39:40.136Z,7.50
2022-11-25T19:42:06.796Z,7.50
2022-11-25T19:44:33.478Z,7.60
2022-11-25T19:47:14.782Z,7.60
2022-11-25T19:49:42.121Z,7.50
2022-11-25T19:52:08.720Z,7.50
2022-11-25T19:54:35.553Z,7.60
2022-11-25T19:57:02.452Z,7.40
2022-11-25T19:59:29.200Z,7.50
2022-11-25T20:01:55.874Z,7.60
2022-11-25T20:04:22.518Z,7.50
2022-11-25T20:06:49.182Z,7.50
2022-11-25T20:09:15.789Z,7.50
2022-11-25T20:11:42.465Z,7.40
2022-11-25T20:14:09.128Z,7.40
2022-11-25T20:16:35.791Z,7.10
2022-11-25T20:19:02.513Z,6.70
2022-11-25T20:21:29.154Z,7.00
2022-11-25T20:23:55.784Z,6.50
2022-11-25T20:26:22.381Z,6.20
2022-11-25T20:28:49.038Z,6.30
2022-11-25T20:31:15.732Z,6.60
2022-11-25T20:33:42.444Z,6.70
2022-11-25T20:36:09.039Z,6.30
2022-11-25T20:38:35.689Z,6.20
2022-11-25T20:41:02.321Z,6.30
2022-11-25T20:43:28.937Z,6.30
2022-11-25T20:45:55.651Z,6.40
2022-11-25T20:48:22.387Z,6.30
2022-11-25T20:50:49.007Z,6.00
2022-11-25T20:53:15.923Z,6.20
2022-11-25T20:55:42.668Z,6.20
2022-11-25T20:58:09.314Z,5.70
2022-11-25T21:00:35.973Z,6.00
2022-11-25T21:03:02.602Z,6.30
2022-11-25T21:05:29.245Z,6.40
2022-11-25T21:07:55.994Z,6.10
2022-11-25T21:10:22.723Z,6.00
2022-11-25T21:12:49.380Z,5.70
2022-11-25T21:15:16.043Z,6.00
2022-11-25T21:17:42.649Z,6.10
2022-11-25T21:20:09.329Z,6.30
2022-11-25T21:22:41.059Z,6.20
2022-11-25T21:25:08.019Z,6.10
2022-11-25T21:27:34.675Z,6.00
2022-11-25T21:30:01.295Z,6.10
2022-11-25T21:32:27.906Z,5.80
2022-11-25T21:34:54.523Z,5.40
2022-11-25T21:37:21.153Z,5.70
2022-11-25T21:39:47.786Z,5.70
2022-11-25T21:42:14.372Z,5.80
2022-11-25T21:44:41.052Z,5.90
2022-11-25T21:47:07.663Z,5.80
2022-11-25T21:49:34.532Z,5.90
2022-11-25T21:52:01.255Z,6.00
2022-11-25T21:54:27.914Z,5.90
2022-11-25T21:56:54.542Z,5.30
2022-11-25T21:59:21.151Z,5.30
2022-11-25T22:01:47.767Z,5.40
2022-11-25T22:04:14.458Z,5.40
2022-11-25T22:06:41.093Z,5.10
2022-11-25T22:09:07.723Z,5.30
2022-11-25T22:11:34.308Z,5.40
2022-11-25T22:14:00.896Z,5.50
2022-11-25T22:16:27.723Z,5.60
2022-11-25T22:18:54.459Z,5.50
2022-11-25T22:21:21.080Z,5.50
2022-11-25T22:23:47.748Z,5.50
2022-11-25T22:26:14.414Z,5.30
2022-11-25T22:28:41.094Z,5.30
2022-11-25T22:31:07.792Z,5.40
2022-11-25T22:33:34.402Z,5.40
2022-11-25T22:36:01.029Z,5.00
2022-11-25T22:38:27.653Z,5.00
2022-11-25T22:40:54.275Z,5.10
2022-11-25T22:43:20.897Z,5.00
2022-11-25T22:45:47.622Z,4.70
2022-11-25T22:48:14.315Z,4.80
2022-11-25T22:50:40.952Z,4.90
2022-11-25T22:53:07.598Z,5.00
2022-11-25T22:55:34.282Z,5.20
2022-11-25T22:58:00.946Z,5.20
2022-11-25T23:00:27.630Z,5.10
2022-11-25T23:02:54.238Z,4.80
2022-11-25T23:05:20.836Z,4.80
2022-11-25T23:07:47.512Z,4.70
2022-11-25T23:10:14.154Z,4.70
2022-11-25T23:12:40.787Z,4.30
2022-11-25T23:15:07.455Z,4.20
2022-11-25T23:17:34.085Z,4.30
2022-11-25T23:20:00.699Z,4.10
2022-11-25T23:22:27.377Z,4.50
2022-11-25T23:24:54.058Z,4.30
2022-11-25T23:27:20.637Z,4.50
2022-11-25T23:29:47.255Z,4.40
2022-11-25T23:32:13.941Z,4.50
2022-11-25T23:34:40.646Z,4.60
2022-11-25T23:37:07.336Z,4.70
2022-11-25T23:39:33.965Z,4.70
2022-11-25T23:42:00.629Z,4.70
2022-11-25T23:44:27.241Z,4.70
2022-11-25T23:46:53.831Z,4.80
2022-11-25T23:49:20.480Z,4.90
2022-11-25T23:51:47.100Z,4.80
2022-11-25T23:54:13.772Z,4.40
2022-11-25T23:56:40.393Z,4.40
2022-11-25T23:59:07.046Z,4.30
